sensor_id;sensor_type;location;lat;lon;timestamp;pressure;altitude;pressure_sealevel;temperature;humidity
25420;BME280;13354;48.174;11.566;2024-01-30T00:01:09;97078.38;;;3.86;70.13
25420;BME280;13354;48.174;11.566;2024-01-30T00:03:35;97078.50;;;3.85;70.91
25420;BME280;13354;48.174;11.566;2024-01-30T00:06:00;97073.88;;;3.88;70.97
25420;BME280;13354;48.174;11.566;2024-01-30T00:08:26;97072.69;;;3.93;70.80
25420;BME280;13354;48.174;11.566;2024-01-30T00:10:51;97075.91;;;3.96;71.11
25420;BME280;13354;48.174;11.566;2024-01-30T00:13:16;97079.34;;;3.97;70.72
25420;BME280;13354;48.174;11.566;2024-01-30T00:15:44;97080.09;;;3.99;71.13
25420;BME280;13354;48.174;11.566;2024-01-30T00:18:09;97081.28;;;3.95;70.98
25420;BME280;13354;48.174;11.566;2024-01-30T00:20:35;97075.31;;;3.93;70.92
25420;BME280;13354;48.174;11.566;2024-01-30T00:23:00;97074.34;;;3.94;71.15
25420;BME280;13354;48.174;11.566;2024-01-30T00:25:26;97081.72;;;3.88;70.39
25420;BME280;13354;48.174;11.566;2024-01-30T00:27:52;97084.56;;;3.74;70.28
25420;BME280;13354;48.174;11.566;2024-01-30T00:30:17;97074.78;;;3.65;71.09
25420;BME280;13354;48.174;11.566;2024-01-30T00:32:42;97076.78;;;3.61;71.09
25420;BME280;13354;48.174;11.566;2024-01-30T00:35:08;97076.78;;;3.61;71.33
25420;BME280;13354;48.174;11.566;2024-01-30T00:37:35;97082.03;;;3.61;71.57
25420;BME280;13354;48.174;11.566;2024-01-30T00:40:01;97070.94;;;3.58;71.24
25420;BME280;13354;48.174;11.566;2024-01-30T00:42:26;97071.41;;;3.52;71.35
25420;BME280;13354;48.174;11.566;2024-01-30T00:44:51;97077.31;;;3.43;72.01
25420;BME280;13354;48.174;11.566;2024-01-30T00:47:17;97082.66;;;3.41;72.41
25420;BME280;13354;48.174;11.566;2024-01-30T00:49:42;97079.00;;;3.44;72.65
25420;BME280;13354;48.174;11.566;2024-01-30T00:52:08;97075.41;;;3.45;72.28
25420;BME280;13354;48.174;11.566;2024-01-30T00:54:33;97078.16;;;3.43;72.41
25420;BME280;13354;48.174;11.566;2024-01-30T00:56:58;97074.59;;;3.44;72.63
25420;BME280;13354;48.174;11.566;2024-01-30T00:59:24;97077.94;;;3.46;72.73
25420;BME280;13354;48.174;11.566;2024-01-30T01:01:50;97081.03;;;3.51;72.54
25420;BME280;13354;48.174;11.566;2024-01-30T01:04:16;97080.59;;;3.57;72.22
25420;BME280;13354;48.174;11.566;2024-01-30T01:06:41;97075.72;;;3.64;72.03
25420;BME280;13354;48.174;11.566;2024-01-30T01:09:10;97081.28;;;3.59;71.88
25420;BME280;13354;48.174;11.566;2024-01-30T01:11:35;97077.09;;;3.57;72.11
25420;BME280;13354;48.174;11.566;2024-01-30T01:14:00;97073.06;;;3.53;72.19
25420;BME280;13354;48.174;11.566;2024-01-30T01:16:26;97072.34;;;3.51;72.11
25420;BME280;13354;48.174;11.566;2024-01-30T01:18:51;97079.97;;;3.54;72.89
25420;BME280;13354;48.174;11.566;2024-01-30T01:21:16;97079.13;;;3.53;72.50
25420;BME280;13354;48.174;11.566;2024-01-30T01:23:42;97080.47;;;3.59;71.71
25420;BME280;13354;48.174;11.566;2024-01-30T01:26:08;97074.75;;;3.54;71.50
25420;BME280;13354;48.174;11.566;2024-01-30T01:28:35;97081.25;;;3.48;71.92
25420;BME280;13354;48.174;11.566;2024-01-30T01:31:00;97068.03;;;3.50;72.42
25420;BME280;13354;48.174;11.566;2024-01-30T01:33:33;97077.69;;;3.49;72.53
25420;BME280;13354;48.174;11.566;2024-01-30T01:35:59;97078.16;;;3.43;72.32
25420;BME280;13354;48.174;11.566;2024-01-30T01:38:24;97070.41;;;3.42;72.00
25420;BME280;13354;48.174;11.566;2024-01-30T01:40:50;97080.59;;;3.33;72.42
25420;BME280;13354;48.174;11.566;2024-01-30T01:43:16;97075.94;;;3.26;72.87
25420;BME280;13354;48.174;11.566;2024-01-30T01:45:41;97065.47;;;3.26;72.71
25420;BME280;13354;48.174;11.566;2024-01-30T01:48:07;97071.13;;;3.20;72.72
25420;BME280;13354;48.174;11.566;2024-01-30T01:50:33;97071.97;;;3.20;73.18
25420;BME280;13354;48.174;11.566;2024-01-30T01:52:59;97069.66;;;3.28;72.89
25420;BME280;13354;48.174;11.566;2024-01-30T01:55:24;97073.81;;;3.31;72.78
25420;BME280;13354;48.174;11.566;2024-01-30T01:57:52;97074.41;;;3.34;72.82
25420;BME280;13354;48.174;11.566;2024-01-30T02:00:18;97070.00;;;3.35;72.36
25420;BME280;13354;48.174;11.566;2024-01-30T02:02:45;97068.34;;;3.34;72.33
25420;BME280;13354;48.174;11.566;2024-01-30T02:05:11;97072.38;;;3.27;72.68
25420;BME280;13354;48.174;11.566;2024-01-30T02:07:36;97076.78;;;3.26;72.97
25420;BME280;13354;48.174;11.566;2024-01-30T02:10:02;97076.97;;;3.23;73.04
25420;BME280;13354;48.174;11.566;2024-01-30T02:12:29;97072.59;;;3.24;72.86
25420;BME280;13354;48.174;11.566;2024-01-30T02:14:54;97069.66;;;3.28;72.62
25420;BME280;13354;48.174;11.566;2024-01-30T02:17:20;97068.47;;;3.32;72.75
25420;BME280;13354;48.174;11.566;2024-01-30T02:19:46;97064.16;;;3.31;72.59
25420;BME280;13354;48.174;11.566;2024-01-30T02:22:12;97069.53;;;3.30;72.47
25420;BME280;13354;48.174;11.566;2024-01-30T02:24:38;97068.81;;;3.28;72.14
25420;BME280;13354;48.174;11.566;2024-01-30T02:27:03;97068.09;;;3.26;72.06
25420;BME280;13354;48.174;11.566;2024-01-30T02:29:28;97071.34;;;3.17;72.56
25420;BME280;13354;48.174;11.566;2024-01-30T02:31:54;97078.09;;;3.08;73.26
25420;BME280;13354;48.174;11.566;2024-01-30T02:34:19;97079.72;;;2.98;73.40
25420;BME280;13354;48.174;11.566;2024-01-30T02:36:45;97073.66;;;2.97;73.62
25420;BME280;13354;48.174;11.566;2024-01-30T02:39:11;97070.75;;;2.89;73.73
25420;BME280;13354;48.174;11.566;2024-01-30T02:41:36;97077.88;;;2.87;74.48
25420;BME280;13354;48.174;11.566;2024-01-30T02:44:03;97066.69;;;2.85;74.15
25420;BME280;13354;48.174;11.566;2024-01-30T02:46:28;97072.75;;;2.85;74.46
25420;BME280;13354;48.174;11.566;2024-01-30T02:48:54;97064.06;;;2.85;74.38
25420;BME280;13354;48.174;11.566;2024-01-30T02:51:19;97072.00;;;2.83;74.58
25420;BME280;13354;48.174;11.566;2024-01-30T02:53:44;97061.13;;;2.89;74.67
25420;BME280;13354;48.174;11.566;2024-01-30T02:56:10;97061.47;;;2.85;74.58
25420;BME280;13354;48.174;11.566;2024-01-30T02:58:36;97062.41;;;2.84;74.59
25420;BME280;13354;48.174;11.566;2024-01-30T03:01:02;97053.00;;;2.81;74.37
25420;BME280;13354;48.174;11.566;2024-01-30T03:03:28;97058.84;;;2.85;74.59
25420;BME280;13354;48.174;11.566;2024-01-30T03:05:53;97054.56;;;2.84;74.68
25420;BME280;13354;48.174;11.566;2024-01-30T03:08:19;97050.38;;;2.81;74.47
25420;BME280;13354;48.174;11.566;2024-01-30T03:10:44;97041.78;;;2.79;74.66
25420;BME280;13354;48.174;11.566;2024-01-30T03:13:10;97040.25;;;2.77;74.52
25420;BME280;13354;48.174;11.566;2024-01-30T03:15:35;97045.59;;;2.75;75.01
25420;BME280;13354;48.174;11.566;2024-01-30T03:18:02;97050.59;;;2.78;74.42
25420;BME280;13354;48.174;11.566;2024-01-30T03:20:28;97049.75;;;2.78;74.40
25420;BME280;13354;48.174;11.566;2024-01-30T03:22:55;97040.69;;;2.71;74.54
25420;BME280;13354;48.174;11.566;2024-01-30T03:25:20;97044.91;;;2.60;74.71
25420;BME280;13354;48.174;11.566;2024-01-30T03:27:46;97045.84;;;2.59;74.98
25420;BME280;13354;48.174;11.566;2024-01-30T03:30:11;97044.81;;;2.62;75.22
25420;BME280;13354;48.174;11.566;2024-01-30T03:32:37;97040.28;;;2.64;75.32
25420;BME280;13354;48.174;11.566;2024-01-30T03:35:03;97048.88;;;2.66;75.29
25420;BME280;13354;48.174;11.566;2024-01-30T03:37:28;97046.34;;;2.64;75.22
25420;BME280;13354;48.174;11.566;2024-01-30T03:39:53;97045.41;;;2.65;75.04
25420;BME280;13354;48.174;11.566;2024-01-30T03:42:19;97046.47;;;2.63;75.24
25420;BME280;13354;48.174;11.566;2024-01-30T03:44:44;97038.75;;;2.61;75.42
25420;BME280;13354;48.174;11.566;2024-01-30T03:47:10;97039.44;;;2.63;75.60
25420;BME280;13354;48.174;11.566;2024-01-30T03:49:35;97035.06;;;2.64;75.34
25420;BME280;13354;48.174;11.566;2024-01-30T03:52:00;97038.50;;;2.64;74.82
25420;BME280;13354;48.174;11.566;2024-01-30T03:54:25;97032.78;;;2.59;74.99
25420;BME280;13354;48.174;11.566;2024-01-30T03:56:51;97035.59;;;2.56;75.31
25420;BME280;13354;48.174;11.566;2024-01-30T03:59:16;97037.72;;;2.51;75.56
25420;BME280;13354;48.174;11.566;2024-01-30T04:01:47;97040.53;;;2.48;75.80
25420;BME280;13354;48.174;11.566;2024-01-30T04:04:12;97038.16;;;2.45;75.89
25420;BME280;13354;48.174;11.566;2024-01-30T04:06:38;97036.69;;;2.41;75.71
25420;BME280;13354;48.174;11.566;2024-01-30T04:09:03;97040.06;;;2.43;76.11
25420;BME280;13354;48.174;11.566;2024-01-30T04:11:28;97041.72;;;2.44;76.14
25420;BME280;13354;48.174;11.566;2024-01-30T04:13:54;97044.22;;;2.46;76.07
25420;BME280;13354;48.174;11.566;2024-01-30T04:16:22;97040.22;;;2.53;75.72
25420;BME280;13354;48.174;11.566;2024-01-30T04:18:48;97039.16;;;2.55;75.50
25420;BME280;13354;48.174;11.566;2024-01-30T04:21:13;97043.63;;;2.66;75.12
25420;BME280;13354;48.174;11.566;2024-01-30T04:23:40;97043.50;;;2.67;74.62
25420;BME280;13354;48.174;11.566;2024-01-30T04:26:06;97041.53;;;2.71;74.67
25420;BME280;13354;48.174;11.566;2024-01-30T04:28:31;97038.91;;;2.71;74.50
25420;BME280;13354;48.174;11.566;2024-01-30T04:30:56;97036.06;;;2.74;74.51
25420;BME280;13354;48.174;11.566;2024-01-30T04:33:22;97038.69;;;2.74;74.23
25420;BME280;13354;48.174;11.566;2024-01-30T04:35:47;97037.72;;;2.75;74.14
25420;BME280;13354;48.174;11.566;2024-01-30T04:38:12;97032.50;;;2.75;74.00
25420;BME280;13354;48.174;11.566;2024-01-30T04:40:39;97040.97;;;2.79;74.40
25420;BME280;13354;48.174;11.566;2024-01-30T04:43:05;97038.38;;;3.03;76.89
25420;BME280;13354;48.174;11.566;2024-01-30T04:45:30;97038.16;;;3.06;76.69
25420;BME280;13354;48.174;11.566;2024-01-30T04:47:55;97034.84;;;3.15;76.25
25420;BME280;13354;48.174;11.566;2024-01-30T04:50:21;97036.56;;;3.27;75.66
25420;BME280;13354;48.174;11.566;2024-01-30T04:52:46;97035.75;;;3.38;75.76
25420;BME280;13354;48.174;11.566;2024-01-30T04:55:11;97033.56;;;3.56;76.43
25420;BME280;13354;48.174;11.566;2024-01-30T04:57:37;97041.75;;;3.51;75.20
25420;BME280;13354;48.174;11.566;2024-01-30T05:00:02;97039.41;;;3.24;73.17
25420;BME280;13354;48.174;11.566;2024-01-30T05:02:28;97036.38;;;3.06;73.36
25420;BME280;13354;48.174;11.566;2024-01-30T05:04:53;97044.38;;;2.92;73.56
25420;BME280;13354;48.174;11.566;2024-01-30T05:07:19;97046.09;;;2.80;74.17
25420;BME280;13354;48.174;11.566;2024-01-30T05:09:44;97050.47;;;2.80;73.69
25420;BME280;13354;48.174;11.566;2024-01-30T05:12:10;97054.78;;;2.81;74.11
25420;BME280;13354;48.174;11.566;2024-01-30T05:14:35;97053.63;;;2.72;74.11
25420;BME280;13354;48.174;11.566;2024-01-30T05:17:00;97056.38;;;2.71;72.99
25420;BME280;13354;48.174;11.566;2024-01-30T05:19:28;97056.50;;;2.69;73.82
25420;BME280;13354;48.174;11.566;2024-01-30T05:21:53;97053.81;;;2.58;74.39
25420;BME280;13354;48.174;11.566;2024-01-30T05:24:19;97051.41;;;2.55;74.59
25420;BME280;13354;48.174;11.566;2024-01-30T05:26:44;97057.28;;;2.46;74.51
25420;BME280;13354;48.174;11.566;2024-01-30T05:29:09;97056.44;;;2.45;75.03
25420;BME280;13354;48.174;11.566;2024-01-30T05:31:35;97047.03;;;2.42;75.10
25420;BME280;13354;48.174;11.566;2024-01-30T05:34:00;97065.25;;;2.44;75.22
25420;BME280;13354;48.174;11.566;2024-01-30T05:36:25;97059.38;;;2.40;75.31
25420;BME280;13354;48.174;11.566;2024-01-30T05:38:51;97059.59;;;2.37;75.37
25420;BME280;13354;48.174;11.566;2024-01-30T05:41:16;97062.34;;;2.36;75.56
25420;BME280;13354;48.174;11.566;2024-01-30T05:43:42;97059.25;;;2.42;75.50
25420;BME280;13354;48.174;11.566;2024-01-30T05:46:07;97062.00;;;2.40;75.22
25420;BME280;13354;48.174;11.566;2024-01-30T05:48:32;97056.56;;;2.44;75.58
25420;BME280;13354;48.174;11.566;2024-01-30T05:51:00;97062.00;;;2.40;75.63
25420;BME280;13354;48.174;11.566;2024-01-30T05:53:25;97068.19;;;2.39;75.35
25420;BME280;13354;48.174;11.566;2024-01-30T05:55:51;97072.66;;;2.37;75.62
25420;BME280;13354;48.174;11.566;2024-01-30T05:58:16;97073.91;;;2.32;75.64
25420;BME280;13354;48.174;11.566;2024-01-30T06:00:41;97071.31;;;2.32;75.89
25420;BME280;13354;48.174;11.566;2024-01-30T06:03:07;97066.53;;;2.26;75.93
25420;BME280;13354;48.174;11.566;2024-01-30T06:05:32;97072.56;;;2.26;76.15
25420;BME280;13354;48.174;11.566;2024-01-30T06:07:58;97070.91;;;2.25;75.94
25420;BME280;13354;48.174;11.566;2024-01-30T06:10:23;97070.59;;;2.17;76.08
25420;BME280;13354;48.174;11.566;2024-01-30T06:12:49;97072.38;;;2.16;76.37
25420;BME280;13354;48.174;11.566;2024-01-30T06:15:14;97074.25;;;2.14;76.64
25420;BME280;13354;48.174;11.566;2024-01-30T06:17:40;97077.09;;;2.11;76.70
25420;BME280;13354;48.174;11.566;2024-01-30T06:20:06;97075.94;;;2.15;76.63
25420;BME280;13354;48.174;11.566;2024-01-30T06:22:31;97070.28;;;2.22;76.36
25420;BME280;13354;48.174;11.566;2024-01-30T06:24:57;97066.09;;;2.19;76.20
25420;BME280;13354;48.174;11.566;2024-01-30T06:27:22;97068.84;;;2.17;76.43
25420;BME280;13354;48.174;11.566;2024-01-30T06:29:48;97072.50;;;2.15;76.22
25420;BME280;13354;48.174;11.566;2024-01-30T06:32:13;97073.53;;;2.25;76.04
25420;BME280;13354;48.174;11.566;2024-01-30T06:34:38;97084.28;;;2.21;76.04
25420;BME280;13354;48.174;11.566;2024-01-30T06:37:05;97083.34;;;2.22;76.49
25420;BME280;13354;48.174;11.566;2024-01-30T06:39:31;97087.09;;;2.30;76.81
25420;BME280;13354;48.174;11.566;2024-01-30T06:41:56;97095.69;;;2.32;75.94
25420;BME280;13354;48.174;11.566;2024-01-30T06:44:21;97088.47;;;2.36;74.99
25420;BME280;13354;48.174;11.566;2024-01-30T06:46:47;97082.91;;;2.40;75.05
25420;BME280;13354;48.174;11.566;2024-01-30T06:49:12;97088.13;;;2.40;74.92
25420;BME280;13354;48.174;11.566;2024-01-30T06:51:38;97092.34;;;2.43;74.17
25420;BME280;13354;48.174;11.566;2024-01-30T06:54:03;97091.59;;;2.41;73.98
25420;BME280;13354;48.174;11.566;2024-01-30T06:56:29;97089.81;;;2.41;74.75
25420;BME280;13354;48.174;11.566;2024-01-30T06:58:55;97092.41;;;2.41;74.65
25420;BME280;13354;48.174;11.566;2024-01-30T07:01:20;97097.13;;;2.36;74.71
25420;BME280;13354;48.174;11.566;2024-01-30T07:03:46;97100.78;;;2.34;74.44
25420;BME280;13354;48.174;11.566;2024-01-30T07:06:12;97098.91;;;2.36;74.71
25420;BME280;13354;48.174;11.566;2024-01-30T07:08:37;97095.78;;;2.44;74.76
25420;BME280;13354;48.174;11.566;2024-01-30T07:11:04;97094.00;;;2.44;74.73
25420;BME280;13354;48.174;11.566;2024-01-30T07:13:30;97094.41;;;2.51;74.46
25420;BME280;13354;48.174;11.566;2024-01-30T07:15:56;97087.59;;;2.48;74.73
25420;BME280;13354;48.174;11.566;2024-01-30T07:18:21;97086.78;;;2.48;74.80
25420;BME280;13354;48.174;11.566;2024-01-30T07:20:46;97093.44;;;2.52;75.16
25420;BME280;13354;48.174;11.566;2024-01-30T07:23:13;97105.03;;;2.60;74.81
25420;BME280;13354;48.174;11.566;2024-01-30T07:25:41;97099.59;;;2.63;74.85
25420;BME280;13354;48.174;11.566;2024-01-30T07:28:10;97100.00;;;2.70;74.29
25420;BME280;13354;48.174;11.566;2024-01-30T07:30:36;97096.00;;;2.77;73.93
25420;BME280;13354;48.174;11.566;2024-01-30T07:33:01;97105.81;;;2.86;73.53
25420;BME280;13354;48.174;11.566;2024-01-30T07:35:27;97104.69;;;3.02;73.11
25420;BME280;13354;48.174;11.566;2024-01-30T07:37:52;97101.44;;;3.11;72.30
25420;BME280;13354;48.174;11.566;2024-01-30T07:40:18;97098.47;;;3.15;70.55
25420;BME280;13354;48.174;11.566;2024-01-30T07:42:43;97102.59;;;3.31;70.37
25420;BME280;13354;48.174;11.566;2024-01-30T07:45:09;97101.09;;;3.39;70.19
25420;BME280;13354;48.174;11.566;2024-01-30T07:47:34;97102.38;;;3.58;69.48
25420;BME280;13354;48.174;11.566;2024-01-30T07:50:00;97102.88;;;3.74;68.80
25420;BME280;13354;48.174;11.566;2024-01-30T07:52:25;97103.44;;;3.91;67.40
25420;BME280;13354;48.174;11.566;2024-01-30T07:54:51;97103.09;;;4.06;66.78
25420;BME280;13354;48.174;11.566;2024-01-30T07:57:16;97104.06;;;4.17;65.96
25420;BME280;13354;48.174;11.566;2024-01-30T07:59:43;97102.97;;;4.30;65.81
25420;BME280;13354;48.174;11.566;2024-01-30T08:02:12;97101.81;;;4.46;65.33
25420;BME280;13354;48.174;11.566;2024-01-30T08:04:38;97109.44;;;4.82;63.98
25420;BME280;13354;48.174;11.566;2024-01-30T08:07:04;97101.91;;;4.78;62.82
25420;BME280;13354;48.174;11.566;2024-01-30T08:09:29;97102.16;;;4.86;62.49
25420;BME280;13354;48.174;11.566;2024-01-30T08:11:54;97103.44;;;4.92;62.00
25420;BME280;13354;48.174;11.566;2024-01-30T08:14:20;97112.28;;;4.91;62.31
25420;BME280;13354;48.174;11.566;2024-01-30T08:16:45;97105.09;;;4.93;62.42
25420;BME280;13354;48.174;11.566;2024-01-30T08:19:11;97115.84;;;5.01;62.34
25420;BME280;13354;48.174;11.566;2024-01-30T08:21:36;97114.38;;;5.08;62.44
25420;BME280;13354;48.174;11.566;2024-01-30T08:24:05;97118.19;;;5.15;62.22
25420;BME280;13354;48.174;11.566;2024-01-30T08:26:33;97113.19;;;5.23;61.93
25420;BME280;13354;48.174;11.566;2024-01-30T08:28:59;97114.94;;;5.34;61.34
25420;BME280;13354;48.174;11.566;2024-01-30T08:31:25;97117.28;;;5.37;61.30
25420;BME280;13354;48.174;11.566;2024-01-30T08:33:50;97109.75;;;5.44;60.88
25420;BME280;13354;48.174;11.566;2024-01-30T08:36:16;97112.47;;;5.53;60.69
25420;BME280;13354;48.174;11.566;2024-01-30T08:38:42;97107.41;;;5.62;60.39
25420;BME280;13354;48.174;11.566;2024-01-30T08:41:08;97105.13;;;5.68;60.14
25420;BME280;13354;48.174;11.566;2024-01-30T08:43:33;97104.25;;;5.79;60.08
25420;BME280;13354;48.174;11.566;2024-01-30T08:46:00;97104.97;;;6.02;59.82
25420;BME280;13354;48.174;11.566;2024-01-30T08:48:25;97110.66;;;6.49;59.94
25420;BME280;13354;48.174;11.566;2024-01-30T08:50:51;97102.53;;;7.02;58.32
25420;BME280;13354;48.174;11.566;2024-01-30T08:53:16;97100.78;;;7.32;57.09
25420;BME280;13354;48.174;11.566;2024-01-30T08:55:41;97101.22;;;7.75;55.03
25420;BME280;13354;48.174;11.566;2024-01-30T08:58:07;97099.16;;;8.83;53.56
25420;BME280;13354;48.174;11.566;2024-01-30T09:00:33;97095.66;;;9.37;50.73
25420;BME280;13354;48.174;11.566;2024-01-30T09:02:58;97101.63;;;9.75;49.90
25420;BME280;13354;48.174;11.566;2024-01-30T09:05:24;97094.41;;;10.39;49.34
25420;BME280;13354;48.174;11.566;2024-01-30T09:07:49;97105.75;;;10.92;47.83
25420;BME280;13354;48.174;11.566;2024-01-30T09:10:15;97098.25;;;11.21;46.15
25420;BME280;13354;48.174;11.566;2024-01-30T09:12:41;97097.19;;;11.56;45.26
25420;BME280;13354;48.174;11.566;2024-01-30T09:15:06;97109.00;;;11.78;44.68
25420;BME280;13354;48.174;11.566;2024-01-30T09:17:32;97109.47;;;12.55;43.70
25420;BME280;13354;48.174;11.566;2024-01-30T09:19:58;97112.06;;;12.80;42.66
25420;BME280;13354;48.174;11.566;2024-01-30T09:22:24;97115.78;;;13.49;41.92
25420;BME280;13354;48.174;11.566;2024-01-30T09:24:50;97120.50;;;13.39;41.07
25420;BME280;13354;48.174;11.566;2024-01-30T09:27:15;97118.25;;;13.82;40.64
25420;BME280;13354;48.174;11.566;2024-01-30T09:29:41;97109.41;;;14.27;40.17
25420;BME280;13354;48.174;11.566;2024-01-30T09:32:06;97124.50;;;14.58;39.56
25420;BME280;13354;48.174;11.566;2024-01-30T09:34:32;97122.00;;;14.71;39.28
25420;BME280;13354;48.174;11.566;2024-01-30T09:36:58;97122.94;;;14.79;38.35
25420;BME280;13354;48.174;11.566;2024-01-30T09:39:25;97118.63;;;14.92;38.17
25420;BME280;13354;48.174;11.566;2024-01-30T09:42:04;97116.50;;;15.17;37.77
25420;BME280;13354;48.174;11.566;2024-01-30T09:44:30;97112.22;;;15.38;37.48
25420;BME280;13354;48.174;11.566;2024-01-30T09:46:56;97122.91;;;15.38;37.88
25420;BME280;13354;48.174;11.566;2024-01-30T09:49:24;97125.09;;;15.49;37.69
25420;BME280;13354;48.174;11.566;2024-01-30T09:51:50;97122.66;;;15.33;37.27
25420;BME280;13354;48.174;11.566;2024-01-30T09:54:18;97120.47;;;14.92;38.33
25420;BME280;13354;48.174;11.566;2024-01-30T09:56:44;97130.56;;;14.67;38.30
25420;BME280;13354;48.174;11.566;2024-01-30T09:59:10;97130.84;;;14.72;38.31
25420;BME280;13354;48.174;11.566;2024-01-30T10:01:36;97127.34;;;14.71;37.96
25420;BME280;13354;48.174;11.566;2024-01-30T10:04:01;97120.91;;;14.66;38.09
25420;BME280;13354;48.174;11.566;2024-01-30T10:06:27;97120.63;;;15.05;37.72
25420;BME280;13354;48.174;11.566;2024-01-30T10:08:53;97125.03;;;15.13;37.42
25420;BME280;13354;48.174;11.566;2024-01-30T10:11:18;97125.69;;;15.30;37.28
25420;BME280;13354;48.174;11.566;2024-01-30T10:13:44;97121.91;;;15.24;37.53
25420;BME280;13354;48.174;11.566;2024-01-30T10:16:09;97115.31;;;15.05;37.27
25420;BME280;13354;48.174;11.566;2024-01-30T10:18:35;97111.66;;;14.91;37.91
25420;BME280;13354;48.174;11.566;2024-01-30T10:21:00;97114.84;;;14.87;38.23
25420;BME280;13354;48.174;11.566;2024-01-30T10:23:26;97120.34;;;14.56;37.62
25420;BME280;13354;48.174;11.566;2024-01-30T10:25:51;97114.53;;;14.52;38.22
25420;BME280;13354;48.174;11.566;2024-01-30T10:28:17;97120.88;;;14.28;38.01
25420;BME280;13354;48.174;11.566;2024-01-30T10:30:42;97110.22;;;14.28;38.30
25420;BME280;13354;48.174;11.566;2024-01-30T10:33:08;97108.34;;;14.37;38.33
25420;BME280;13354;48.174;11.566;2024-01-30T10:35:33;97104.75;;;14.44;39.09
25420;BME280;13354;48.174;11.566;2024-01-30T10:37:59;97105.06;;;14.49;39.99
25420;BME280;13354;48.174;11.566;2024-01-30T10:40:28;97086.88;;;14.68;39.00
25420;BME280;13354;48.174;11.566;2024-01-30T10:42:55;97086.34;;;14.72;38.49
25420;BME280;13354;48.174;11.566;2024-01-30T10:45:22;97089.00;;;14.72;38.06
25420;BME280;13354;48.174;11.566;2024-01-30T10:47:53;97075.41;;;14.82;35.84
25420;BME280;13354;48.174;11.566;2024-01-30T10:50:19;97075.56;;;15.10;35.78
25420;BME280;13354;48.174;11.566;2024-01-30T10:52:45;97069.56;;;15.59;35.98
25420;BME280;13354;48.174;11.566;2024-01-30T10:55:12;97068.59;;;15.82;34.30
25420;BME280;13354;48.174;11.566;2024-01-30T10:57:39;97064.06;;;16.04;33.23
25420;BME280;13354;48.174;11.566;2024-01-30T11:00:07;97064.47;;;16.29;32.51
25420;BME280;13354;48.174;11.566;2024-01-30T11:02:40;97055.22;;;16.59;31.79
25420;BME280;13354;48.174;11.566;2024-01-30T11:05:06;97063.13;;;16.39;31.82
25420;BME280;13354;48.174;11.566;2024-01-30T11:07:31;97058.63;;;16.18;32.13
25420;BME280;13354;48.174;11.566;2024-01-30T11:12:23;97057.78;;;16.39;32.47
25420;BME280;13354;48.174;11.566;2024-01-30T11:14:50;97059.75;;;16.59;33.06
25420;BME280;13354;48.174;11.566;2024-01-30T11:17:15;97051.47;;;16.82;32.08
25420;BME280;13354;48.174;11.566;2024-01-30T11:19:41;97044.53;;;16.59;31.83
25420;BME280;13354;48.174;11.566;2024-01-30T11:22:07;97040.63;;;16.90;32.16
25420;BME280;13354;48.174;11.566;2024-01-30T11:24:40;97043.31;;;16.62;32.44
25420;BME280;13354;48.174;11.566;2024-01-30T11:27:09;97044.09;;;16.56;32.63
25420;BME280;13354;48.174;11.566;2024-01-30T11:29:37;97043.16;;;16.70;32.78
25420;BME280;13354;48.174;11.566;2024-01-30T11:32:05;97037.25;;;16.75;32.29
25420;BME280;13354;48.174;11.566;2024-01-30T11:34:32;97039.53;;;16.78;32.41
25420;BME280;13354;48.174;11.566;2024-01-30T11:37:01;97029.59;;;16.72;32.51
25420;BME280;13354;48.174;11.566;2024-01-30T11:39:31;97036.03;;;16.77;32.43
25420;BME280;13354;48.174;11.566;2024-01-30T11:41:58;97027.78;;;16.79;32.97
25420;BME280;13354;48.174;11.566;2024-01-30T11:44:24;97027.13;;;16.42;32.58
25420;BME280;13354;48.174;11.566;2024-01-30T11:46:53;97030.31;;;16.24;31.89
25420;BME280;13354;48.174;11.566;2024-01-30T11:49:19;97027.03;;;16.01;32.37
25420;BME280;13354;48.174;11.566;2024-01-30T11:51:45;97015.69;;;15.92;33.56
25420;BME280;13354;48.174;11.566;2024-01-30T11:54:11;97025.41;;;16.00;34.45
25420;BME280;13354;48.174;11.566;2024-01-30T11:56:37;97026.06;;;15.80;33.61
25420;BME280;13354;48.174;11.566;2024-01-30T11:59:04;97017.38;;;15.57;33.68
25420;BME280;13354;48.174;11.566;2024-01-30T12:01:30;97020.81;;;15.51;33.75
25420;BME280;13354;48.174;11.566;2024-01-30T12:03:57;97021.72;;;15.58;33.65
25420;BME280;13354;48.174;11.566;2024-01-30T12:06:23;97009.13;;;15.52;34.12
25420;BME280;13354;48.174;11.566;2024-01-30T12:09:02;97014.25;;;15.53;34.49
25420;BME280;13354;48.174;11.566;2024-01-30T12:11:31;97006.31;;;15.38;34.16
25420;BME280;13354;48.174;11.566;2024-01-30T12:13:57;97012.38;;;15.47;34.39
25420;BME280;13354;48.174;11.566;2024-01-30T12:16:22;96999.94;;;15.61;34.00
25420;BME280;13354;48.174;11.566;2024-01-30T12:18:48;96995.28;;;15.84;34.28
25420;BME280;13354;48.174;11.566;2024-01-30T12:21:17;96994.75;;;16.24;33.66
25420;BME280;13354;48.174;11.566;2024-01-30T12:23:43;97000.88;;;16.52;33.09
25420;BME280;13354;48.174;11.566;2024-01-30T12:26:09;96992.59;;;16.75;32.58
25420;BME280;13354;48.174;11.566;2024-01-30T12:28:35;96990.44;;;16.99;31.73
25420;BME280;13354;48.174;11.566;2024-01-30T12:31:02;96990.50;;;17.19;31.19
25420;BME280;13354;48.174;11.566;2024-01-30T12:33:29;96990.38;;;17.47;30.49
25420;BME280;13354;48.174;11.566;2024-01-30T12:35:54;96976.81;;;17.68;30.56
25420;BME280;13354;48.174;11.566;2024-01-30T12:38:20;96983.22;;;17.80;30.12
25420;BME280;13354;48.174;11.566;2024-01-30T12:40:45;96981.19;;;18.02;29.79
25420;BME280;13354;48.174;11.566;2024-01-30T12:43:13;96979.94;;;17.98;29.93
25420;BME280;13354;48.174;11.566;2024-01-30T12:45:38;96973.75;;;17.91;28.85
25420;BME280;13354;48.174;11.566;2024-01-30T12:48:04;96969.81;;;17.54;30.45
25420;BME280;13354;48.174;11.566;2024-01-30T12:50:30;96976.34;;;17.45;29.82
25420;BME280;13354;48.174;11.566;2024-01-30T12:52:55;96969.16;;;17.45;30.46